DW7160 La Colilla ES current weather conditions

sailwx.info

Wind from 189 at 2 knots gusting 3

Air temperature 14.4° C
Dewpoint 8.2° C

Last reported at 2018-May-20 17:00 UTC.
Time now 2018-May-20 17:26 UTC

Location: N 40°39' W 004°46'.
View on Google Maps.

See reports from other nearby stations

  
Tides and Currents Weather Stations Pressure Air Temp Water Temp Dewpoint Dewpoint Depression Visibility Wind Speed Wind Dir Waves Ship Positions
date/time (UTC)wind fromknots sea level pressurealtimeterstation pressurevisibilityair tempwater tempwave heightnotes
2018-May-20 17:10 211 3 gusting 6 15.0
2018-May-20 17:00 189 2 gusting 3 14.4
2018-May-20 16:50 186 1 gusting 4 14.4
2018-May-20 16:40 198 2 gusting 4 14.4
2018-May-20 16:30 196 3 gusting 6 14.4
2018-May-20 16:20 195 4 gusting 6 14.4
2018-May-20 16:10 195 4 gusting 7 14.4
2018-May-20 16:00 199 4 gusting 6 14.4
2018-May-20 15:50 204 2 gusting 5 13.9
2018-May-20 15:40 202 4 gusting 9 13.3
2018-May-20 15:30 203 7 gusting 13 13.9
2018-May-20 15:20 199 7 gusting 13 13.3
2018-May-20 15:10 199 8 gusting 16 12.2
2018-May-20 15:00 203 9 gusting 17 12.2
2018-May-20 14:50 200 9 gusting 16 12.2
2018-May-20 14:40 191 8 gusting 17 12.8
2018-May-20 14:30 194 9 gusting 17 12.8
2018-May-20 14:20 191 9 gusting 15 12.8
2018-May-20 14:10 185 11 gusting 18 13.3
2018-May-20 14:00 178 10 gusting 18 14.4
2018-May-20 13:50 195 6 gusting 10 15.6
2018-May-20 13:40 215 4 gusting 7 17.2
2018-May-20 13:30 341 3 gusting 6 19.4
2018-May-20 13:20 183 1 gusting 5 19.4
2018-May-20 13:10 193 3 gusting 6 18.9
2018-May-20 13:00 235 1 gusting 6 19.4
2018-May-20 12:50 324 1 gusting 6 19.4
2018-May-20 12:40 295 2 gusting 6 18.3
2018-May-20 12:30 251 2 gusting 6 18.3
2018-May-20 12:20 204 4 gusting 6 18.3
2018-May-20 12:10 211 4 gusting 7 17.8
2018-May-20 12:00 218 2 gusting 6 18.3
2018-May-20 11:50 245 2 gusting 8 18.3
2018-May-20 11:40 207 4 gusting 7 17.8
2018-May-20 11:30 215 3 gusting 8 17.8
2018-May-20 11:20 226 3 gusting 8 17.8
2018-May-20 11:10 225 1 gusting 6 17.8
2018-May-20 11:00 229 2 gusting 6 17.8
2018-May-20 10:30 241 2 gusting 6 17.2
2018-May-20 10:20 229 3 gusting 6 16.7
2018-May-20 10:10 209 4 gusting 7 16.7
2018-May-20 09:50 193 4 gusting 7 16.1
2018-May-20 09:40 191 3 gusting 6 16.1
2018-May-20 09:30 218 3 gusting 7 16.1
2018-May-20 09:20 211 4 gusting 6 15.6
2018-May-20 09:10 210 3 gusting 6 15.6
2018-May-20 09:00 209 3 gusting 6 15.0
2018-May-20 08:50 214 3 gusting 6 14.4
2018-May-20 08:40 202 3 gusting 6 14.4
2018-May-20 08:30 205 3 gusting 6 13.9
2018-May-20 08:20 205 3 gusting 6 13.3
2018-May-20 08:10 205 4 gusting 6 13.3
2018-May-20 08:00 215 5 gusting 7 13.3
2018-May-20 07:50 210 5 gusting 8 12.8
2018-May-20 07:40 211 4 gusting 6 12.8
2018-May-20 07:30 184 2 gusting 5 12.8
2018-May-20 07:20 185 1 gusting 4 12.2
2018-May-20 07:10 182 2 gusting 5 12.2
2018-May-20 07:00 187 5 gusting 6 12.2
2018-May-20 06:50 184 5 gusting 8 11.7
2018-May-20 06:40 181 4 gusting 7 11.1
2018-May-20 06:30 181 4 gusting 7 11.1
2018-May-20 06:20 170 2 gusting 6 11.1
2018-May-20 06:10 180 3 gusting 7 11.1
2018-May-20 06:00 178 3 gusting 6 10.6
2018-May-20 05:50 179 3 gusting 6 10.6
2018-May-20 05:40 178 5 gusting 7 10.6
2018-May-20 05:30 180 4 gusting 6 10.0
2018-May-20 05:20 182 4 gusting 6 10.0
2018-May-20 05:10 183 3 gusting 6 10.0
2018-May-20 05:00 180 3 gusting 6 10.0
2018-May-20 04:50 182 4 gusting 6 10.0
2018-May-20 04:40 180 3 gusting 6 10.0
2018-May-20 04:30 183 4 gusting 8 10.0
2018-May-20 04:20 186 4 gusting 6 10.0
2018-May-20 04:10 182 4 gusting 6 10.0
2018-May-20 04:00 171 2 gusting 4 10.0
2018-May-20 03:50 171 2 gusting 3 10.0
2018-May-20 03:40 171 0 gusting 3 10.0
2018-May-20 03:30 171 2 gusting 3 10.0
2018-May-20 03:20 171 1 gusting 3 10.0
2018-May-20 03:10 171 1 gusting 3 10.0
2018-May-20 03:00 171 0 gusting 3 9.4
2018-May-20 02:50 170 1 gusting 3 9.4
2018-May-20 02:40 169 0 gusting 2 8.9
2018-May-20 02:30 169 8.9
2018-May-20 02:20 169 0 gusting 1 9.4
2018-May-20 02:10 169 10.0
2018-May-20 02:00 194 1 gusting 4 11.7
2018-May-20 01:50 195 2 gusting 4 11.7
2018-May-20 01:40 184 0 gusting 3 11.1
2018-May-20 01:30 178 1 gusting 3 11.1
2018-May-20 01:20 179 1 gusting 4 11.1
2018-May-20 01:10 202 2 gusting 4 11.1
2018-May-20 01:00 212 1 gusting 4 11.1
2018-May-20 00:50 271 11.1
2018-May-20 00:40 200 0 gusting 3 11.1
2018-May-20 00:30 173 10.6
2018-May-20 00:20 173 10.6
2018-May-20 00:10 173 11.1
2018-May-20 00:00 173 10.6
2018-May-19 23:50 10.6
2018-May-19 23:40 11.1
2018-May-19 23:30 173 11.1
2018-May-19 23:20 11.1
2018-May-19 23:10 11.1
2018-May-19 23:00 11.1
2018-May-19 22:50 173 11.7
2018-May-19 22:40 173 11.7
2018-May-19 22:30 173 12.2
2018-May-19 22:20 173 11.7
2018-May-19 22:10 173 12.2
2018-May-19 22:00 173 12.8
2018-May-19 21:50 173 1 gusting 3 13.3
2018-May-19 21:40 189 2 gusting 6 13.3
2018-May-19 21:30 198 3 gusting 6 13.3
2018-May-19 21:20 201 3 gusting 6 13.3
2018-May-19 21:10 193 3 gusting 5 14.4
2018-May-19 21:00 199 3 gusting 6 13.9
2018-May-19 20:50 202 4 gusting 6 13.9
2018-May-19 20:40 203 4 gusting 6 13.3
2018-May-19 20:30 201 4 gusting 6 13.3
2018-May-19 20:20 201 4 gusting 6 13.9
2018-May-19 20:10 201 4 gusting 6 13.9
2018-May-19 20:00 204 3 gusting 6 13.9
2018-May-19 19:50 201 3 gusting 6 13.9
2018-May-19 19:40 201 3 gusting 6 13.9
2018-May-19 19:30 214 2 gusting 5 13.9
2018-May-19 19:20 212 2 gusting 5 13.9
2018-May-19 19:10 230 1 gusting 4 13.9
2018-May-19 19:00 199 1 gusting 3 13.9
2018-May-19 18:50 193 1 gusting 3 14.4
2018-May-19 18:40 197 2 gusting 4 14.4
2018-May-19 18:30 186 3 gusting 6 14.4
2018-May-19 18:20 174 2 gusting 5 14.4
2018-May-19 18:10 179 3 gusting 7 14.4
2018-May-19 18:00 181 3 gusting 6 14.4
2018-May-19 17:50 167 2 gusting 5 14.4
2018-May-19 17:40 185 4 gusting 6 13.9
2018-May-19 17:30 200 4 gusting 6 13.9
2018-May-19 17:20 250 0 gusting 4 13.9
2018-May-19 17:10 291 0 gusting 3 13.3
2018-May-19 17:00 295 1 gusting 6 13.3
2018-May-19 16:50 271 1 gusting 5 13.3
2018-May-19 16:40 306 3 gusting 9 13.3
2018-May-19 16:30 289 1 gusting 5 13.9
2018-May-19 16:20 300 1 gusting 4 13.9
2018-May-19 16:10 274 0 gusting 4 13.9
2018-May-19 16:00 303 0 gusting 3 14.4
2018-May-19 15:50 209 1 gusting 4 15.0
2018-May-19 15:40 192 3 gusting 6 16.1
2018-May-19 15:30 195 5 gusting 9 15.6
2018-May-19 15:20 182 5 gusting 6 16.1
2018-May-19 15:10 178 6 gusting 11 16.1
2018-May-19 15:00 193 7 gusting 12 16.1
2018-May-19 10:00 242 0 gusting 3 17.8
2018-May-19 09:50 259 0 gusting 4 17.8
2018-May-19 09:40 296 0 gusting 2 17.2
2018-May-19 09:30 305 0 gusting 3 17.2
2018-May-19 09:20 279 0 gusting 3 16.7
2018-May-19 09:10 286 0 gusting 3 16.7
2018-May-19 09:00 284 0 gusting 3 16.1
2018-May-19 08:50 270 0 gusting 3 16.1
2018-May-19 08:40 226 16.1
2018-May-19 08:30 209 15.6
2018-May-19 08:20 209 15.0
2018-May-19 08:10 209 14.4
2018-May-19 08:00 209 14.4
2018-May-19 07:50 209 13.9
2018-May-19 07:40 13.3
2018-May-19 07:30 209 12.8
2018-May-19 07:20 209 12.2
2018-May-19 07:10 209 12.2
2018-May-19 07:00 209 11.7
2018-May-19 06:50 209 11.1
2018-May-19 06:20 10.6
2018-May-19 06:10 10.0
2018-May-19 06:00 10.0
2018-May-19 05:50 207 9.4
2018-May-19 05:40 198 0 gusting 2 8.9
2018-May-19 05:30 198 10.0
2018-May-19 05:20 11.1
2018-May-19 05:10 11.1
2018-May-19 05:00 11.1
2018-May-19 04:50 198 11.1
2018-May-19 04:40 198 0 gusting 1 11.1
2018-May-19 04:30 198 1 gusting 3 11.1
2018-May-19 04:20 198 1 gusting 3 10.6
2018-May-19 04:10 201 2 gusting 3 10.6
2018-May-19 04:00 202 1 gusting 3 10.6
2018-May-19 03:50 202 1 gusting 4 10.6
2018-May-19 03:40 202 1 gusting 3 10.6
2018-May-19 03:30 202 0 gusting 2 10.6
2018-May-19 03:20 202 0 gusting 2 10.6
2018-May-19 03:10 202 1 gusting 2 10.6
2018-May-19 03:00 204 2 gusting 4 10.6
2018-May-19 02:50 199 2 gusting 4 10.6
2018-May-19 02:40 190 2 gusting 4 10.6
2018-May-19 02:30 196 2 gusting 4 10.6
2018-May-19 02:20 196 2 gusting 6 10.6
2018-May-19 02:10 201 3 gusting 6 10.6
2018-May-19 02:00 199 3 gusting 6 10.6
2018-May-19 01:50 195 3 gusting 6 10.6
2018-May-19 01:40 207 2 gusting 4 10.6
2018-May-19 01:30 192 0 gusting 6 10.0
2018-May-19 01:20 199 2 gusting 5 10.0
2018-May-19 01:10 203 4 gusting 6 10.0
2018-May-19 01:00 198 3 gusting 6 10.0
2018-May-19 00:50 202 1 gusting 4 10.0
2018-May-19 00:40 202 0 gusting 4 9.4
2018-May-19 00:30 202 0 gusting 5 9.4
2018-May-19 00:20 186 0 gusting 3 9.4
2018-May-19 00:10 189 1 gusting 5 9.4
2018-May-19 00:00 197 2 gusting 6 9.4
2018-May-18 23:50 188 0 gusting 3 8.9
2018-May-18 23:40 197 8.9
2018-May-18 23:30 198 1 gusting 5 8.9
2018-May-18 23:20 203 3 gusting 6 8.9
2018-May-18 23:10 203 2 gusting 5 8.9
2018-May-18 23:00 198 1 gusting 5 8.9
2018-May-18 22:50 8.9
2018-May-18 22:40 8.9
2018-May-18 22:30 9.4
2018-May-18 22:20 200 9.4
2018-May-18 22:10 10.0
2018-May-18 22:00 200 10.0
2018-May-18 21:50 200 10.6
2018-May-18 21:40 200 10.0
2018-May-18 21:30 10.6
2018-May-18 21:20 200 1 gusting 3 10.6
2018-May-18 21:10 199 3 gusting 5 10.0
2018-May-18 21:00 201 3 gusting 6 10.0
2018-May-18 20:50 208 1 gusting 4 10.0
2018-May-18 20:40 005 0 gusting 2 10.0
2018-May-18 20:30 005 10.0
2018-May-18 20:20 10.0
2018-May-18 20:10 005 10.0
2018-May-18 20:00 005 0 gusting 1 10.0
2018-May-18 19:50 005 0 gusting 1 10.0
2018-May-18 19:40 005 10.0
2018-May-18 19:30 005 10.6
2018-May-18 19:20 005 2 gusting 3 10.6
2018-May-18 19:10 005 3 gusting 5 10.6
2018-May-18 19:00 359 4 gusting 6 11.1
2018-May-18 18:50 346 2 gusting 4 11.1
2018-May-18 18:40 276 1 gusting 6 11.1
2018-May-18 18:30 306 1 gusting 4 11.1
2018-May-18 18:20 304 1 gusting 4 11.1
2018-May-18 18:10 313 2 gusting 6 11.1
2018-May-18 18:00 327 3 gusting 6 11.1
2018-May-18 17:50 352 5 gusting 9 11.1
2018-May-18 17:40 358 6 gusting 9 11.1
2018-May-18 17:30 006 8 gusting 13 11.1
2018-May-18 17:20 350 5 gusting 11 11.1
2018-May-18 17:10 331 4 gusting 9 11.7
2018-May-18 17:00 233 3 gusting 6 12.2